Time;durP1;ratioP1;P1;durP2;ratioP2;P2;SDS_P1;SDS_P2;PMS_P1;PMS_P2;Temp;Humidity;BMP_temperature;BMP_pressure;BME280_temperature;BME280_humidity;BME280_pressure;Samples;Min_cycle;Max_cycle;Signal;HPM_P1;HPM_P2
2023/04/14 03:36:00;;;;;;;8.63;2.20;;;;;;;7.56;66.61;99941.63;4765510;30;20259;-73
2023/04/14 03:38:42;;;;;;;8.97;1.90;;;;;;;7.50;67.10;99942.19;4793381;29;20220;-73
2023/04/14 03:41:13;;;;;;;9.40;2.00;;;;;;;7.44;67.33;99937.47;4868005;29;20719;-73
2023/04/14 03:44:14;;;;;;;10.27;2.53;;;;;;;7.43;67.36;99941.09;4898791;29;20206;-73
2023/04/14 03:46:49;;;;;;;7.27;2.20;;;;;;;7.42;67.33;99939.41;4896100;29;20227;-73
2023/04/14 05:56:58;;;;;;;10.17;3.27;;;;;;;8.04;65.02;99998.75;5819818;24;20275;-65
2023/04/14 06:10:30;;;;;;;10.63;3.00;;;;;;;8.19;64.34;99997.31;6053356;23;20201;-65
2023/04/14 06:16:40;;;;;;;14.97;3.37;;;;;;;8.26;63.86;99993.13;6039426;23;20240;-65
2023/04/14 06:23:42;;;;;;;8.87;2.73;;;;;;;8.36;63.67;99991.28;5915264;24;20234;-65
2023/04/14 06:26:25;;;;;;;;;;;;;;;;;;;;;
2023/04/14 06:33:30;;;;;;;12.40;3.90;;;;;;;8.63;63.26;99999.22;6048073;23;20204;-65
2023/04/14 06:39:46;;;;;;;9.87;3.50;;;;;;;8.71;63.26;99995.84;6002535;23;20251;-65
2023/04/14 06:42:28;;;;;;;11.43;3.30;;;;;;;8.77;63.30;99991.81;6147884;23;20975;-66
2023/04/14 06:45:55;;;;;;;10.87;3.33;;;;;;;8.83;63.60;99989.38;6151779;23;20770;-65
2023/04/14 06:53:24;;;;;;;10.90;3.47;;;;;;;8.98;63.96;100000.28;5993063;23;20192;-67
2023/04/14 06:56:32;;;;;;;14.07;3.37;;;;;;;9.06;63.43;99993.25;6055642;23;20197;-66
2023/04/14 07:09:26;;;;;;;8.10;2.40;;;;;;;9.46;61.04;99989.34;6206505;23;20940;-66
2023/04/14 07:16:13;;;;;;;11.13;3.27;;;;;;;9.66;61.26;99990.00;6169972;23;20262;-65
2023/04/14 07:19:03;;;;;;;15.77;3.70;;;;;;;9.66;61.64;99990.00;6203920;23;20196;-65
2023/04/14 07:59:24;;;;;;;11.83;3.23;;;;;;;11.16;58.98;99978.81;5834131;24;20228;-65
2023/04/14 08:20:46;;;;;;;;;;;;;;;;;;;;;
2023/04/14 08:41:51;;;;;;;8.37;2.10;;;;;;;13.38;52.53;99961.88;5997119;23;20658;-64
2023/04/14 08:44:45;;;;;;;8.20;2.63;;;;;;;13.57;51.65;99966.72;6012757;23;20264;-63
2023/04/14 08:47:51;;;;;;;9.87;2.97;;;;;;;13.67;51.78;99964.63;6052053;23;20191;-64
2023/04/14 08:50:44;;;;;;;11.33;2.80;;;;;;;13.83;51.33;99964.50;6105918;23;20224;-64
2023/04/14 08:53:26;;;;;;;8.77;3.27;;;;;;;13.97;51.37;99954.03;6233731;23;20704;-64
2023/04/14 08:56:08;;;;;;;7.13;2.30;;;;;;;14.14;51.08;99952.88;6231344;23;20778;-64
2023/04/14 08:58:52;;;;;;;7.87;2.37;;;;;;;14.19;50.49;99950.47;6233792;23;20196;-64
2023/04/14 09:01:27;;;;;;;7.90;3.60;;;;;;;14.40;50.25;99942.59;6232372;23;20531;-64
2023/04/14 09:04:33;;;;;;;11.63;2.97;;;;;;;14.62;50.50;99956.81;6233655;23;20696;-64
2023/04/14 09:07:12;;;;;;;10.47;3.00;;;;;;;14.82;49.92;99947.19;6232679;23;20264;-64
2023/04/14 09:10:02;;;;;;;9.37;2.40;;;;;;;15.02;48.35;99952.75;6233242;23;20335;-64
2023/04/14 09:12:48;;;;;;;10.17;3.13;;;;;;;15.21;47.43;99949.47;6231457;23;20270;-66
2023/04/14 09:15:28;;;;;;;9.33;2.90;;;;;;;15.35;47.24;99943.22;6234853;23;20172;-64
2023/04/14 09:34:19;;;;;;;8.30;3.30;;;;;;;16.66;44.98;99926.44;5969893;24;20224;-64
2023/04/14 09:37:47;;;;;;;7.90;2.90;;;;;;;16.87;44.76;99922.81;5972992;23;20269;-65
2023/04/14 09:40:37;;;;;;;9.00;3.20;;;;;;;17.18;44.27;99919.56;6083531;23;20195;-64
2023/04/14 09:43:35;;;;;;;7.13;3.10;;;;;;;17.34;42.78;99923.69;6083107;23;20175;-65
2023/04/14 09:46:14;;;;;;;12.77;3.00;;;;;;;17.64;42.87;99928.50;6083579;23;20194;-66
2023/04/14 09:52:26;;;;;;;6.80;2.43;;;;;;;18.03;41.95;99918.72;6055622;23;20198;-65
2023/04/14 09:55:53;;;;;;;12.63;2.97;;;;;;;18.19;41.66;99917.47;6193050;23;20187;-66
2023/04/14 09:59:11;;;;;;;7.40;3.10;;;;;;;18.22;41.29;99909.81;6205497;23;20187;-65
2023/04/14 10:02:09;;;;;;;9.57;2.80;;;;;;;18.40;40.72;99909.94;6174014;23;20653;-66
2023/04/14 10:05:10;;;;;;;6.40;2.83;;;;;;;18.70;40.28;99904.09;6235135;23;20183;-65
2023/04/14 10:08:04;;;;;;;9.47;2.80;;;;;;;19.32;39.05;99907.81;6236215;23;20175;-66
2023/04/14 10:10:37;;;;;;;8.13;2.70;;;;;;;20.12;38.02;99892.63;6236714;23;20199;-66
2023/04/14 10:13:48;;;;;;;12.20;3.37;;;;;;;21.34;35.72;99897.66;6234301;23;20245;-66
2023/04/14 10:16:31;;;;;;;9.77;2.67;;;;;;;23.15;33.00;99887.47;6220662;23;20193;-66
2023/04/14 10:19:24;;;;;;;8.23;2.63;;;;;;;24.90;30.56;99889.41;6221710;23;20266;-66
2023/04/14 10:22:20;;;;;;;7.77;2.93;;;;;;;25.64;29.34;99881.44;6234992;23;20241;-66
2023/04/14 10:25:22;;;;;;;8.17;2.63;;;;;;;27.37;26.89;99873.91;6233238;23;20186;-68
2023/04/14 10:28:19;;;;;;;8.37;3.43;;;;;;;29.28;24.56;99877.03;6233014;23;20591;-65
2023/04/14 10:31:21;;;;;;;12.18;2.85;;;;;;;29.96;24.10;99870.69;6236521;23;20191;-66
2023/04/14 10:34:14;;;;;;;7.63;2.70;;;;;;;30.50;23.29;99864.84;6228884;23;20186;-66
2023/04/14 10:40:51;;;;;;;7.35;2.45;;;;;;;28.95;24.51;99867.69;6223832;23;20241;-67
2023/04/14 11:02:00;;;;;;;6.10;2.60;;;;;;;33.48;19.61;99840.97;6223953;22;20686;-67
2023/04/14 11:05:36;;;;;;;11.32;3.05;;;;;;;32.39;19.87;99829.25;6223383;23;20176;-67
2023/04/14 11:09:01;;;;;;;7.80;2.80;;;;;;;27.60;24.84;99832.53;6208493;23;20218;-67
2023/04/14 11:19:24;;;;;;;9.15;2.47;;;;;;;33.17;18.79;99806.00;6071185;23;20198;-66
2023/04/14 11:26:26;;;;;;;9.18;3.10;;;;;;;27.99;22.82;99800.00;6011879;23;20253;-67
2023/04/14 11:29:25;;;;;;;8.32;2.67;;;;;;;27.12;24.36;99799.34;6077569;23;20190;-66
2023/04/14 11:32:44;;;;;;;8.20;2.67;;;;;;;28.68;23.15;99796.38;6113161;23;20217;-66
2023/04/14 11:35:51;;;;;;;6.40;2.33;;;;;;;26.76;24.78;99792.22;5999713;23;20473;-68
2023/04/14 11:38:44;;;;;;;10.07;4.10;;;;;;;29.52;22.62;99793.25;5991712;23;20208;-66
2023/04/14 11:41:38;;;;;;;7.05;2.50;;;;;;;31.94;19.81;99773.41;6110353;23;20296;-68
2023/04/14 11:51:02;;;;;;;;;;;;;;;;;;;;;
2023/04/14 11:53:32;;;;;;;31.95;3.95;;;;;;;35.24;17.37;99745.94;6223194;23;20290;-66
2023/04/14 12:06:05;;;;;;;8.30;2.53;;;;;;;35.46;16.05;99731.91;6235448;23;20175;-67
2023/04/14 12:12:03;;;;;;;8.32;2.67;;;;;;;36.59;15.33;99709.94;6234980;23;20743;-66
2023/04/14 12:14:54;;;;;;;6.53;2.53;;;;;;;34.92;16.73;99718.97;6234165;23;20183;-69
2023/04/14 12:17:29;;;;;;;4.78;1.98;;;;;;;32.42;18.38;99723.56;6234520;23;20634;-66
2023/04/14 12:20:27;;;;;;;6.20;2.10;;;;;;;32.35;18.51;99718.53;6236022;23;20197;-69
2023/04/14 12:28:09;;;;;;;;;;;;;;;;;;;;;
2023/04/14 12:35:14;;;;;;;6.32;2.03;;;;;;;33.61;16.27;99706.19;5887076;24;20194;-67
2023/04/14 12:38:43;;;;;;;4.50;2.08;;;;;;;33.91;15.36;99699.03;5885717;24;20267;-66
2023/04/14 12:41:36;;;;;;;10.05;2.17;;;;;;;31.99;16.33;99690.25;5876768;24;20343;-66
2023/04/14 12:44:38;;;;;;;4.47;1.85;;;;;;;29.75;18.66;99695.19;5927289;23;20186;-67
2023/04/14 12:48:00;;;;;;;6.55;2.08;;;;;;;28.18;19.59;99699.38;6061829;23;20202;-66
2023/04/14 12:50:42;;;;;;;6.88;1.77;;;;;;;27.09;20.15;99688.31;6234594;23;20171;-65
2023/04/14 12:54:21;;;;;;;3.67;1.48;;;;;;;26.10;21.13;99688.81;6142064;23;20185;-66
2023/04/14 12:57:07;;;;;;;;;;;;;;;;;;;;;
2023/04/14 12:59:52;;;;;;;5.82;1.58;;;;;;;24.38;23.26;99685.88;6141080;23;20224;-66
2023/04/14 13:02:57;;;;;;;;;;;;;;;;;;;;;
2023/04/14 13:05:37;;;;;;;6.38;1.45;;;;;;;23.06;25.00;99684.25;6137033;23;20239;-65
2023/04/14 13:11:38;;;;;;;5.20;1.38;;;;;;;21.93;24.02;99679.88;6089351;23;20211;-67
2023/04/14 13:14:20;;;;;;;5.88;1.10;;;;;;;21.67;23.98;99672.34;6157243;23;20195;-67
2023/04/14 13:18:02;;;;;;;4.50;1.38;;;;;;;21.36;24.96;99662.81;6071931;23;20190;-66
2023/04/14 13:20:49;;;;;;;5.20;1.42;;;;;;;21.01;27.03;99668.22;6228681;23;20190;-66
2023/04/14 13:31:30;;;;;;;7.28;1.77;;;;;;;20.24;29.62;99659.31;6239749;23;20229;-68
2023/04/14 13:34:06;;;;;;;5.47;1.87;;;;;;;20.18;29.47;99652.16;6235966;23;20850;-67
2023/04/14 13:37:10;;;;;;;4.83;1.70;;;;;;;19.85;29.02;99645.41;6230217;23;20183;-68
2023/04/14 13:39:57;;;;;;;5.63;1.73;;;;;;;19.84;29.19;99649.13;6239360;23;20254;-66
2023/04/14 13:42:33;;;;;;;6.47;1.87;;;;;;;19.78;29.56;99650.06;6239089;23;20225;-67
2023/04/14 13:45:02;;;;;;;6.03;2.00;;;;;;;19.64;28.68;99643.19;6239795;23;20187;-66
2023/04/14 13:47:41;;;;;;;;;;;;;;;;;;;;;
2023/04/14 13:50:15;;;;;;;5.33;1.70;;;;;;;19.70;29.30;99636.91;6236342;23;20191;-65
2023/04/14 13:53:21;;;;;;;6.87;1.77;;;;;;;19.60;29.24;99643.88;6238167;23;20685;-67
2023/04/14 13:56:26;;;;;;;;;;;;;;;;;;;;;
2023/04/14 13:59:55;;;;;;;4.87;1.63;;;;;;;19.46;30.27;99646.69;6150701;23;20578;-68
2023/04/14 14:02:42;;;;;;;3.73;1.20;;;;;;;19.39;29.26;99631.69;6238349;22;20901;-67
2023/04/14 14:05:16;;;;;;;6.67;1.47;;;;;;;19.35;29.42;99633.22;6239194;23;20502;-67
2023/04/14 14:15:26;;;;;;;6.33;1.40;;;;;;;19.15;30.33;99618.13;6151748;23;20199;-68
2023/04/14 14:18:36;;;;;;;4.63;1.40;;;;;;;19.13;31.10;99614.84;6238333;23;20209;-67
2023/04/14 14:21:15;;;;;;;7.50;2.13;;;;;;;19.17;31.09;99612.53;6237161;23;20198;-66
2023/04/14 14:23:50;;;;;;;8.90;1.83;;;;;;;19.02;30.91;99610.19;6237993;23;20300;-66
2023/04/14 14:41:33;;;;;;;4.17;1.23;;;;;;;18.59;32.81;99598.66;6040563;23;21109;-68
2023/04/14 14:44:02;;;;;;;5.97;1.67;;;;;;;18.57;32.66;99598.06;6185818;23;20561;-68
2023/04/14 14:50:26;;;;;;;6.47;2.33;;;;;;;18.48;32.88;99589.44;6113990;23;20217;-67
2023/04/14 14:57:13;;;;;;;5.73;1.70;;;;;;;18.49;31.94;99593.78;6101575;23;20225;-68
2023/04/14 15:03:47;;;;;;;6.17;1.50;;;;;;;18.28;30.15;99589.63;6236301;22;20203;-69
2023/04/14 15:06:41;;;;;;;3.63;1.30;;;;;;;18.26;29.75;99591.72;6236573;23;20241;-68
2023/04/14 15:09:16;;;;;;;5.13;1.50;;;;;;;18.17;29.76;99593.03;6238017;23;20642;-68
2023/04/14 15:11:57;;;;;;;4.87;1.27;;;;;;;17.84;29.77;99589.75;6237610;23;20207;-69
2023/04/14 15:14:55;;;;;;;6.03;1.63;;;;;;;17.67;30.70;99590.28;6238272;23;20172;-68
2023/04/14 15:20:51;;;;;;;5.23;1.70;;;;;;;17.55;31.00;99581.22;6193123;23;20222;-69
2023/04/14 15:23:39;;;;;;;;;;;;;;;;;;;;;
2023/04/14 15:26:08;;;;;;;9.50;1.40;;;;;;;17.48;29.93;99584.97;6228767;23;20202;-65
2023/04/14 15:28:39;;;;;;;2.47;1.20;;;;;;;17.38;30.79;99587.28;6236471;23;20179;-68
2023/04/14 15:31:16;;;;;;;4.77;1.33;;;;;;;17.46;31.32;99579.84;6236079;23;20262;-66
2023/04/14 15:37:12;;;;;;;8.13;1.30;;;;;;;17.71;31.18;99584.47;6087566;23;20217;-65
2023/04/14 15:51:32;;;;;;;4.93;1.50;;;;;;;17.74;33.71;99584.03;6237267;23;20262;-65
2023/04/14 15:54:13;;;;;;;4.43;1.20;;;;;;;17.75;34.59;99574.97;5757746;23;9220137;-66
2023/04/14 16:07:46;;;;;;;4.63;1.30;;;;;;;17.76;34.75;99582.78;6158315;23;20189;-67
2023/04/14 16:14:02;;;;;;;6.53;1.83;;;;;;;17.70;33.35;99580.13;6053622;23;20513;-64
2023/04/14 16:19:23;;;;;;;3.90;1.23;;;;;;;17.50;33.81;99586.38;6053076;23;20191;-64
2023/04/14 16:21:56;;;;;;;3.75;1.55;;;;;;;17.41;32.19;99587.69;5780729;23;6701541;-64
2023/04/14 16:24:38;;;;;;;5.57;1.60;;;;;;;17.35;32.75;99593.91;6116683;23;20216;-64
2023/04/14 16:27:11;;;;;;;5.03;1.50;;;;;;;17.26;33.10;99584.44;6174248;23;20185;-63
2023/04/14 16:30:06;;;;;;;4.80;1.17;;;;;;;17.23;33.82;99587.56;6175690;23;20263;-64
2023/04/14 16:32:42;;;;;;;4.87;1.37;;;;;;;17.15;33.72;99591.28;6175820;23;20209;-64
2023/04/14 16:35:30;;;;;;;9.63;2.13;;;;;;;17.14;34.75;99591.53;6173862;23;20192;-64
2023/04/14 16:38:13;;;;;;;6.50;1.10;;;;;;;17.12;35.12;99583.69;6174202;23;20185;-64
2023/04/14 16:41:02;;;;;;;7.40;1.60;;;;;;;17.09;34.84;99591.31;6173507;23;20189;-63
2023/04/14 16:43:34;;;;;;;5.50;1.33;;;;;;;17.04;34.53;99591.13;6175733;23;20196;-64
2023/04/14 16:46:36;;;;;;;9.33;1.33;;;;;;;16.97;34.64;99593.84;6174421;23;20931;-63
2023/04/14 16:49:16;;;;;;;6.07;1.47;;;;;;;16.96;35.01;99591.38;6167361;23;20199;-66
2023/04/14 16:51:59;;;;;;;7.87;1.30;;;;;;;16.91;35.47;99590.13;6174571;23;20575;-65
2023/04/14 16:54:36;;;;;;;5.03;1.40;;;;;;;16.86;35.22;99578.41;6173654;23;20188;-65
2023/04/14 16:57:31;;;;;;;3.87;1.23;;;;;;;16.82;35.81;99583.38;6174118;23;20168;-66
2023/04/14 17:00:16;;;;;;;3.30;1.10;;;;;;;16.75;33.90;99581.72;6175963;23;20204;-65
2023/04/14 17:03:00;;;;;;;5.13;1.17;;;;;;;16.72;33.55;99585.66;6188719;23;20211;-68
2023/04/14 17:05:40;;;;;;;3.43;1.10;;;;;;;16.63;34.94;99578.88;6206387;23;20182;-64
2023/04/14 17:08:20;;;;;;;3.57;1.27;;;;;;;16.59;35.01;99576.81;6205400;23;20711;-65
2023/04/14 17:14:04;;;;;;;6.57;1.43;;;;;;;16.40;34.37;99584.63;6055096;23;20251;-64
2023/04/14 17:17:02;;;;;;;5.07;1.10;;;;;;;16.30;34.50;99581.56;6053494;23;20196;-63
2023/04/14 17:19:31;;;;;;;3.00;0.93;;;;;;;16.24;34.31;99581.56;6036435;23;20282;-64
2023/04/14 17:22:09;;;;;;;2.67;1.30;;;;;;;16.22;35.71;99588.97;6054269;23;20191;-63
2023/04/14 17:24:54;;;;;;;10.60;2.10;;;;;;;16.22;37.34;99589.78;5983599;23;434621;-63
2023/04/14 17:28:18;;;;;;;;;;;;;;;;;;;;;
2023/04/14 17:31:21;;;;;;;4.07;1.23;;;;;;;16.14;36.09;99588.16;6053015;23;20533;-65
2023/04/14 17:34:11;;;;;;;3.53;1.10;;;;;;;16.11;36.13;99590.41;6054389;23;20357;-64
2023/04/14 17:36:58;;;;;;;5.77;1.10;;;;;;;16.08;36.68;99590.81;6054269;23;20796;-63
2023/04/14 17:43:24;;;;;;;3.90;1.50;;;;;;;15.89;37.14;99587.09;6055089;23;20191;-63
2023/04/14 17:48:53;;;;;;;4.27;1.30;;;;;;;15.73;38.43;99599.00;6137477;23;20185;-64
2023/04/14 17:51:44;;;;;;;;;;;;;;;;;;;;;
2023/04/14 17:54:45;;;;;;;3.40;1.10;;;;;;;15.66;40.21;99594.63;6158206;23;21042;-64
2023/04/14 17:57:42;;;;;;;5.57;1.83;;;;;;;15.68;39.81;99597.94;6174554;23;20185;-63
2023/04/14 18:00:32;;;;;;;5.00;1.37;;;;;;;15.59;38.20;99597.31;6177695;23;20177;-63
2023/04/14 18:03:27;;;;;;;6.47;1.73;;;;;;;15.54;38.99;99598.94;6177288;23;20386;-63
2023/04/14 18:06:41;;;;;;;10.80;1.70;;;;;;;15.46;38.73;99597.25;6057387;23;20195;-64
2023/04/14 18:09:21;;;;;;;3.97;1.63;;;;;;;15.41;39.48;99595.16;6104835;23;20751;-62
2023/04/14 18:14:57;;;;;;;4.40;1.60;;;;;;;15.28;38.91;99595.13;6167496;23;20205;-63
